Hovedside
METAR-TAF:

METAR-TAF

Lufthavner :

Svolvær lufthavn. Helle

Svolvær, Norge

breddegrad: 68-15N, lengdegrad: 014-40E, høyde over havet: 0 m

Gjeldene værobservasjon

Denne rapporten ble laget for 43 minutter siden, klokken 04:20 UTC
Vind 5 kt fra Nord
Temperatur 8°C
Luftfuktighet 57%
Trykk 1022 hPa
Sikt 10 km eller mer
ingen skyer under 1500 m og ingen bygeskyer

METAR: ENSH 250420Z 36005KT CAVOK 08/00 Q1022 RMK WIND 150FT 14004KT

Tid: 07:03 (05:03 UTC)

Varsel

Denne rapporten ble laget for 12 timer og 3 minutter siden, klokken 17:00 UTC
Varsel gyldig fra 24. klokken 18 UTC til 24. klokken 21 UTC
Vind 8 kt fra Nord
Sikt 10 km eller mer
ingen skyer under 1500 m og ingen bygeskyer

TAF: ENSH 241700Z 2418/2421 01008KT CAVOK

Værobservasjoner og værvarsel for over 4000 flyplasser (METAR- og TAF-rapporter).

Tilgjengelige stasjoner er representert av de røde og gule prikkene på kartet.

Hold musepekeren over prikken for å se navnet på stasjonen.

Klikk så for å se værobservasjoner og -varsler.

For å forandre kartet kan du klikke på den grønne knappen med svart kryss for å zoome inn, på den grønne knappen med strek for å zoome ut, eller på de grønne pilene for å se tilstøtende kart.


METAR-TAF: